Time;durP1;ratioP1;P1;durP2;ratioP2;P2;SDS_P1;SDS_P2;PMS_P1;PMS_P2;Temp;Humidity;BMP_temperature;BMP_pressure;BME280_temperature;BME280_humidity;BME280_pressure;Samples;Min_cycle;Max_cycle;Signal;HPM_P1;HPM_P2
2022/05/07 00:00:41;;;;;;;21.50;20.30;;;13.00;49.00;;;;;;5073094;28;20256;-80
2022/05/07 00:03:06;;;;;;;17.53;16.70;;;12.90;49.10;;;;;;5073260;28;20182;-79
2022/05/07 00:05:32;;;;;;;17.40;16.50;;;12.90;49.00;;;;;;5072547;28;20457;-80
2022/05/07 00:07:58;;;;;;;18.63;17.67;;;12.90;49.10;;;;;;5073378;28;20178;-79
2022/05/07 00:10:24;;;;;;;20.20;18.67;;;12.80;49.40;;;;;;5072891;28;20167;-79
2022/05/07 00:12:50;;;;;;;19.70;18.40;;;12.80;49.70;;;;;;5073026;28;20413;-79
2022/05/07 00:15:16;;;;;;;20.80;19.53;;;12.80;49.90;;;;;;5073762;28;20414;-80
2022/05/07 00:20:27;;;;;;;19.03;17.63;;;12.80;49.70;;;;;;5074063;28;20502;-80
2022/05/07 00:22:54;;;;;;;19.50;18.20;;;12.70;50.40;;;;;;5072549;28;20437;-79
2022/05/07 00:25:20;;;;;;;18.50;17.50;;;12.60;50.60;;;;;;5072335;28;20984;-80
2022/05/07 00:27:45;;;;;;;18.90;17.90;;;12.60;50.50;;;;;;5071910;28;20416;-80
2022/05/07 00:30:11;;;;;;;18.90;17.77;;;12.60;50.20;;;;;;5072354;28;20232;-80
2022/05/07 00:32:37;;;;;;;19.00;18.10;;;12.60;49.70;;;;;;5072038;28;20274;-80
2022/05/07 00:35:03;;;;;;;19.30;18.10;;;12.60;49.70;;;;;;5071907;28;20440;-80
2022/05/07 00:37:28;;;;;;;18.80;17.90;;;12.60;49.80;;;;;;5072338;28;20171;-80
2022/05/07 00:39:54;;;;;;;19.83;18.63;;;12.60;50.10;;;;;;5072463;28;20701;-80
2022/05/07 00:42:20;;;;;;;18.77;17.87;;;12.60;50.00;;;;;;5072000;28;20225;-80
2022/05/07 00:44:46;;;;;;;18.00;17.07;;;12.50;50.20;;;;;;5071697;28;20231;-80
2022/05/07 00:47:15;;;;;;;19.37;18.27;;;12.50;50.30;;;;;;5071974;28;20505;-79
2022/05/07 00:49:45;;;;;;;18.97;17.97;;;12.50;50.40;;;;;;5071635;28;20444;-79
2022/05/07 00:52:10;;;;;;;19.50;18.40;;;12.50;50.50;;;;;;5071704;28;20509;-80
2022/05/07 00:54:37;;;;;;;19.33;18.00;;;12.50;50.60;;;;;;5071584;28;20449;-80
2022/05/07 00:57:04;;;;;;;18.57;17.60;;;12.50;50.40;;;;;;5071836;28;20570;-80
2022/05/07 00:59:29;;;;;;;21.30;19.70;;;12.40;50.40;;;;;;5071459;28;20990;-79
2022/05/07 01:01:55;;;;;;;20.60;19.50;;;12.40;50.50;;;;;;5071463;28;20417;-79
2022/05/07 01:04:21;;;;;;;19.97;18.97;;;12.40;50.50;;;;;;5070294;28;20675;-80
2022/05/07 01:06:47;;;;;;;18.70;17.77;;;12.40;50.80;;;;;;5071688;28;20217;-80
2022/05/07 01:09:13;;;;;;;18.80;17.70;;;12.30;50.80;;;;;;5071609;28;20472;-80
2022/05/07 01:11:40;;;;;;;19.77;18.27;;;12.30;50.90;;;;;;5071780;28;20271;-80
2022/05/07 01:14:06;;;;;;;17.80;17.00;;;12.20;51.20;;;;;;5072112;28;20171;-80
2022/05/07 01:16:31;;;;;;;17.87;16.87;;;12.20;51.40;;;;;;5072293;28;20417;-86
2022/05/07 01:18:57;;;;;;;17.90;17.00;;;12.20;51.20;;;;;;5072799;28;20193;-86
2022/05/07 01:21:23;;;;;;;20.53;19.13;;;12.20;51.20;;;;;;5071922;28;20724;-80
2022/05/07 01:23:50;;;;;;;17.63;16.63;;;12.20;51.30;;;;;;5072194;28;20195;-79
2022/05/07 01:26:20;;;;;;;17.63;16.67;;;12.10;51.60;;;;;;5070800;28;20324;-86
2022/05/07 01:28:45;;;;;;;17.60;16.70;;;12.00;52.20;;;;;;5070514;28;20409;-86
2022/05/07 01:31:11;;;;;;;17.77;16.77;;;12.10;52.80;;;;;;5070359;28;20413;-86
2022/05/07 01:33:38;;;;;;;18.50;17.50;;;12.10;52.70;;;;;;5071481;28;20164;-86
2022/05/07 01:36:08;;;;;;;18.20;17.00;;;12.10;52.80;;;;;;5070387;28;20179;-84
2022/05/07 01:38:34;;;;;;;18.97;17.70;;;11.90;53.10;;;;;;5070429;28;20428;-85
2022/05/07 01:40:59;;;;;;;19.67;18.67;;;11.80;54.10;;;;;;5070315;28;20500;-86
2022/05/07 01:43:27;;;;;;;18.90;17.80;;;11.70;55.00;;;;;;5070625;28;20509;-86
2022/05/07 01:45:55;;;;;;;20.03;18.90;;;11.80;54.60;;;;;;5069868;28;20210;-85
2022/05/07 01:48:21;;;;;;;20.50;19.30;;;11.90;53.60;;;;;;5069792;28;20421;-85
2022/05/07 01:50:46;;;;;;;17.57;16.47;;;12.00;53.10;;;;;;5070036;28;20413;-86
2022/05/07 01:53:16;;;;;;;18.03;17.03;;;12.00;53.10;;;;;;5070031;28;20405;-85
2022/05/07 01:55:43;;;;;;;19.43;17.90;;;12.00;53.10;;;;;;5071102;28;20171;-85
2022/05/07 01:58:11;;;;;;;20.60;19.40;;;12.00;53.20;;;;;;5070248;28;20453;-85
2022/05/07 02:00:37;;;;;;;18.87;17.87;;;11.90;53.10;;;;;;5070551;28;20475;-85
2022/05/07 02:03:03;;;;;;;21.30;20.00;;;12.00;53.20;;;;;;5071727;28;20497;-84
2022/05/07 02:05:29;;;;;;;22.23;21.00;;;12.00;53.30;;;;;;5068933;28;20429;-85
2022/05/07 02:07:56;;;;;;;24.37;22.70;;;12.00;53.50;;;;;;5069723;28;20410;-86
2022/05/07 02:10:22;;;;;;;18.23;17.10;;;11.90;53.80;;;;;;5070001;28;20425;-86
2022/05/07 02:12:49;;;;;;;19.07;17.70;;;11.80;54.50;;;;;;5069779;28;20909;-85
2022/05/07 02:15:15;;;;;;;19.37;18.07;;;11.80;54.50;;;;;;5069046;28;20805;-85
2022/05/07 02:17:41;;;;;;;19.10;17.90;;;11.70;54.80;;;;;;5069336;28;20419;-86
2022/05/07 02:20:08;;;;;;;18.80;17.60;;;11.70;55.00;;;;;;5069196;28;20421;-85
2022/05/07 02:22:33;;;;;;;19.97;18.90;;;11.70;54.80;;;;;;5070282;28;20233;-86
2022/05/07 02:24:59;;;;;;;20.90;19.57;;;11.70;54.70;;;;;;5069561;28;20469;-85
2022/05/07 02:27:39;;;;;;;19.80;18.70;;;11.60;55.20;;;;;;5088200;28;20911;-86
2022/05/07 02:30:05;;;;;;;22.83;21.50;;;11.60;55.30;;;;;;5087480;28;20442;-86
2022/05/07 02:32:31;;;;;;;20.50;19.27;;;11.60;55.30;;;;;;5086565;28;20552;-86
2022/05/07 02:34:56;;;;;;;20.30;19.20;;;11.60;55.60;;;;;;5086794;28;20819;-86
2022/05/07 02:37:22;;;;;;;20.87;19.47;;;11.60;55.90;;;;;;5086842;28;20178;-86
2022/05/07 02:39:48;;;;;;;20.73;19.50;;;11.60;55.70;;;;;;5086853;28;20166;-86
2022/05/07 02:44:58;;;;;;;20.30;18.90;;;11.60;55.70;;;;;;5088336;28;20432;-86
2022/05/07 02:47:24;;;;;;;20.10;18.67;;;11.50;55.80;;;;;;5086097;28;20492;-87
2022/05/07 02:49:51;;;;;;;20.77;19.50;;;11.40;56.30;;;;;;5086538;28;20420;-86
2022/05/07 02:52:17;;;;;;;19.57;18.37;;;11.50;56.10;;;;;;5086129;28;20179;-86
2022/05/07 02:54:42;;;;;;;22.10;20.63;;;11.50;55.90;;;;;;5085987;28;20917;-86
2022/05/07 02:57:08;;;;;;;20.40;19.20;;;11.60;55.80;;;;;;5086055;28;20183;-86
2022/05/07 02:59:33;;;;;;;20.37;18.97;;;11.60;55.70;;;;;;5086089;28;20175;-86
2022/05/07 03:01:59;;;;;;;20.43;19.23;;;11.50;55.50;;;;;;5086058;28;20182;-86
2022/05/07 03:04:26;;;;;;;20.17;18.87;;;11.50;55.30;;;;;;5086380;28;20199;-86
2022/05/07 03:06:51;;;;;;;22.43;20.63;;;11.50;55.50;;;;;;5086478;28;20505;-86
2022/05/07 03:09:17;;;;;;;20.53;19.37;;;11.40;55.60;;;;;;5087812;28;20436;-86
2022/05/07 03:11:43;;;;;;;19.90;18.80;;;11.40;55.60;;;;;;5086823;28;20261;-86
2022/05/07 03:14:08;;;;;;;20.33;18.83;;;11.40;55.60;;;;;;5086281;28;20205;-85
2022/05/07 03:16:40;;;;;;;20.10;18.90;;;11.40;55.60;;;;;;5089932;28;20201;-86
2022/05/07 03:19:07;;;;;;;20.40;18.93;;;11.40;55.60;;;;;;5089222;28;20573;-85
2022/05/07 03:21:32;;;;;;;20.63;19.13;;;11.40;55.70;;;;;;5087480;28;20448;-86
2022/05/07 03:23:58;;;;;;;20.07;18.87;;;11.30;56.00;;;;;;5086917;28;20460;-86
2022/05/07 03:26:24;;;;;;;20.67;19.57;;;11.30;56.50;;;;;;5087220;28;20837;-85
2022/05/07 03:28:50;;;;;;;21.13;19.83;;;11.30;56.30;;;;;;5086829;28;20182;-85
2022/05/07 03:31:19;;;;;;;20.63;19.37;;;11.30;55.90;;;;;;5088323;28;20439;-85
2022/05/07 03:33:46;;;;;;;19.33;18.13;;;11.30;55.70;;;;;;5086605;28;20421;-85
2022/05/07 03:36:13;;;;;;;19.70;18.60;;;11.30;56.00;;;;;;5086671;28;20413;-86
2022/05/07 03:38:39;;;;;;;18.93;17.83;;;11.30;56.00;;;;;;5075294;28;20475;-86
2022/05/07 03:41:05;;;;;;;18.93;18.03;;;11.30;56.00;;;;;;5073353;28;20413;-86
2022/05/07 03:43:33;;;;;;;19.47;18.27;;;11.20;56.10;;;;;;5073192;28;20582;-86
2022/05/07 03:45:58;;;;;;;19.40;18.17;;;11.20;56.30;;;;;;5073230;28;20257;-86
2022/05/07 03:48:26;;;;;;;19.60;17.93;;;11.20;56.30;;;;;;5073315;28;20925;-86
2022/05/07 03:50:52;;;;;;;20.73;19.53;;;11.10;56.60;;;;;;5073663;28;20224;-86
2022/05/07 03:53:30;;;;;;;20.80;19.07;;;11.00;56.80;;;;;;5073857;28;20445;-86
2022/05/07 03:56:07;;;;;;;20.63;19.30;;;11.00;56.90;;;;;;5074322;28;20410;-80
2022/05/07 03:58:34;;;;;;;18.57;17.47;;;11.00;57.40;;;;;;5074258;28;20816;-86
2022/05/07 04:01:03;;;;;;;19.43;18.30;;;11.00;57.10;;;;;;5073992;28;20426;-85
2022/05/07 04:03:32;;;;;;;20.47;19.30;;;11.00;57.20;;;;;;5074027;28;20429;-86
2022/05/07 04:05:59;;;;;;;18.50;17.37;;;11.00;57.00;;;;;;5073106;28;20468;-86
2022/05/07 04:08:24;;;;;;;19.53;18.40;;;11.00;57.10;;;;;;5073039;28;20414;-85
2022/05/07 04:10:51;;;;;;;20.37;19.03;;;10.90;57.10;;;;;;5073067;28;20410;-86
2022/05/07 04:13:16;;;;;;;20.60;19.40;;;10.90;57.20;;;;;;5073053;28;20175;-86
2022/05/07 04:15:45;;;;;;;20.27;18.60;;;11.00;57.10;;;;;;5072734;28;20418;-86
2022/05/07 04:18:11;;;;;;;20.00;18.60;;;10.90;57.00;;;;;;5072907;28;20183;-85
2022/05/07 04:20:38;;;;;;;19.50;18.30;;;10.90;57.00;;;;;;5072869;28;20421;-86
2022/05/07 04:23:05;;;;;;;18.73;17.50;;;10.90;57.50;;;;;;5072783;28;20418;-86
2022/05/07 04:25:30;;;;;;;19.43;18.23;;;10.90;57.10;;;;;;5072229;28;20418;-86
2022/05/07 04:27:56;;;;;;;20.63;19.43;;;10.90;57.30;;;;;;5072734;28;20421;-86
2022/05/07 04:30:23;;;;;;;20.27;18.93;;;10.90;57.00;;;;;;5072493;28;20172;-86
2022/05/07 04:32:49;;;;;;;19.60;18.40;;;10.90;57.10;;;;;;5072586;28;20508;-85
2022/05/07 04:35:15;;;;;;;19.50;18.30;;;10.90;57.20;;;;;;5072629;28;20413;-86
2022/05/07 04:37:41;;;;;;;19.80;18.50;;;10.80;57.70;;;;;;5072478;28;20425;-86
2022/05/07 04:40:09;;;;;;;19.60;18.40;;;10.90;57.10;;;;;;5072578;28;20445;-84
2022/05/07 04:42:35;;;;;;;20.50;19.30;;;11.00;56.90;;;;;;5072363;28;20175;-86
2022/05/07 04:45:01;;;;;;;19.67;18.57;;;10.90;56.80;;;;;;5072230;28;20940;-85
2022/05/07 04:47:27;;;;;;;20.07;18.57;;;10.90;57.00;;;;;;5072101;28;20457;-85
2022/05/07 04:49:52;;;;;;;18.53;17.53;;;11.00;56.90;;;;;;5072645;28;20172;-86
2022/05/07 04:52:18;;;;;;;18.80;17.80;;;11.00;57.10;;;;;;5072122;28;20167;-84
2022/05/07 04:54:43;;;;;;;20.70;19.47;;;11.10;56.40;;;;;;5071810;28;20635;-85
2022/05/07 04:57:09;;;;;;;20.57;19.37;;;11.00;56.50;;;;;;5072050;28;20183;-80
2022/05/07 04:59:35;;;;;;;18.53;17.40;;;10.90;57.00;;;;;;5071808;28;20214;-84
2022/05/07 05:02:00;;;;;;;19.87;18.50;;;10.90;58.10;;;;;;5072249;28;20428;-83
2022/05/07 05:04:26;;;;;;;19.77;18.60;;;10.80;58.40;;;;;;5072080;28;20182;-85
2022/05/07 05:06:52;;;;;;;19.63;18.43;;;10.70;58.40;;;;;;5071826;28;20207;-86
2022/05/07 05:09:17;;;;;;;17.33;16.33;;;10.70;58.80;;;;;;5070607;28;20195;-86
2022/05/07 05:11:43;;;;;;;17.87;16.67;;;11.00;58.40;;;;;;5071288;28;20179;-84
2022/05/07 05:16:53;;;;;;;21.03;19.87;;;11.00;58.20;;;;;;5073311;28;20251;-84
2022/05/07 05:19:19;;;;;;;22.23;20.97;;;11.00;57.70;;;;;;5071713;28;20508;-84
2022/05/07 05:21:46;;;;;;;18.60;17.40;;;10.90;56.60;;;;;;5073051;28;20172;-84
2022/05/07 05:24:12;;;;;;;20.77;19.53;;;10.90;57.50;;;;;;5071606;28;20488;-84
2022/05/07 05:26:38;;;;;;;19.80;18.70;;;11.00;56.00;;;;;;5079404;28;20813;-85
2022/05/07 05:29:03;;;;;;;19.20;17.90;;;11.00;56.50;;;;;;5075134;28;20512;-84
2022/05/07 05:31:30;;;;;;;21.97;20.67;;;11.10;56.50;;;;;;5071904;28;20170;-85
2022/05/07 05:33:57;;;;;;;19.63;18.53;;;11.10;56.90;;;;;;5071965;28;20175;-86
2022/05/07 05:36:24;;;;;;;21.90;20.70;;;11.10;57.10;;;;;;5071738;28;20425;-85
2022/05/07 05:38:49;;;;;;;20.20;19.10;;;11.30;56.00;;;;;;5071816;28;20424;-85
2022/05/07 05:41:15;;;;;;;23.60;22.30;;;11.10;55.30;;;;;;5073050;28;20405;-87
2022/05/07 05:43:41;;;;;;;19.30;18.33;;;11.20;56.30;;;;;;5071896;28;20673;-83
2022/05/07 05:46:06;;;;;;;19.07;18.03;;;11.30;55.40;;;;;;5071620;28;20249;-84
2022/05/07 05:48:32;;;;;;;19.40;18.30;;;11.40;54.70;;;;;;5071483;28;20281;-84
2022/05/07 05:50:59;;;;;;;20.10;18.80;;;11.40;55.40;;;;;;5071687;28;20539;-86
2022/05/07 05:53:24;;;;;;;20.40;19.40;;;11.40;55.40;;;;;;5071683;28;20171;-86
2022/05/07 05:55:50;;;;;;;21.47;19.60;;;11.40;54.40;;;;;;5071543;28;20440;-86
2022/05/07 05:58:16;;;;;;;20.03;18.77;;;11.50;54.40;;;;;;5071457;28;20171;-84
2022/05/07 06:00:41;;;;;;;21.57;20.27;;;11.60;55.50;;;;;;5070659;28;20207;-84
2022/05/07 06:03:07;;;;;;;22.43;21.13;;;11.60;53.30;;;;;;5071319;28;20182;-84
2022/05/07 06:05:33;;;;;;;20.90;19.70;;;11.70;55.00;;;;;;5071248;28;20182;-80
2022/05/07 06:07:59;;;;;;;22.07;20.77;;;11.80;54.30;;;;;;5071712;28;20918;-79
2022/05/07 06:10:25;;;;;;;22.03;20.93;;;11.70;52.90;;;;;;5071737;28;20221;-80
2022/05/07 06:12:51;;;;;;;21.97;20.40;;;11.80;53.00;;;;;;5072069;28;20418;-79
2022/05/07 06:15:16;;;;;;;21.90;20.60;;;11.90;53.10;;;;;;5071974;28;20207;-79
2022/05/07 06:17:42;;;;;;;22.53;21.23;;;12.00;53.20;;;;;;5073023;28;20171;-79
2022/05/07 06:20:08;;;;;;;22.47;20.90;;;11.90;53.70;;;;;;5070731;28;20175;-84
2022/05/07 06:22:34;;;;;;;22.77;21.37;;;12.00;52.20;;;;;;5066612;28;20655;-84
2022/05/07 06:27:44;;;;;;;22.17;20.90;;;12.20;53.30;;;;;;5070808;28;20210;-85
2022/05/07 06:30:10;;;;;;;24.20;22.60;;;12.40;52.80;;;;;;5070300;28;20414;-86
2022/05/07 06:32:37;;;;;;;22.60;21.30;;;12.30;51.00;;;;;;5069252;28;20191;-87
2022/05/07 06:35:08;;;;;;;23.07;21.57;;;12.30;51.60;;;;;;5069378;28;20455;-85
2022/05/07 06:37:35;;;;;;;24.40;23.00;;;12.40;53.50;;;;;;5071683;28;20515;-85
2022/05/07 06:40:06;;;;;;;29.80;26.83;;;12.40;52.40;;;;;;5071077;28;20421;-81
2022/05/07 06:42:34;;;;;;;26.03;24.03;;;12.50;52.90;;;;;;5070916;28;20417;-81
2022/05/07 06:44:59;;;;;;;26.50;24.30;;;12.60;53.30;;;;;;5070704;28;20413;-82
2022/05/07 06:47:26;;;;;;;25.70;23.80;;;12.70;53.30;;;;;;5070730;28;20490;-82
2022/05/07 06:49:51;;;;;;;24.97;23.33;;;12.80;52.50;;;;;;5070556;28;20270;-82
2022/05/07 06:52:18;;;;;;;25.20;23.70;;;12.90;52.50;;;;;;5070887;28;21008;-82
2022/05/07 06:54:44;;;;;;;26.80;25.00;;;12.90;52.10;;;;;;5070779;28;20929;-82
2022/05/07 06:57:10;;;;;;;23.00;21.50;;;12.90;52.30;;;;;;5072150;28;20413;-82
2022/05/07 06:59:36;;;;;;;29.33;26.60;;;13.00;54.80;;;;;;5070906;28;20429;-82
2022/05/07 07:02:02;;;;;;;23.17;21.47;;;13.20;54.80;;;;;;5071043;28;20242;-82
2022/05/07 07:04:28;;;;;;;23.37;21.87;;;13.20;53.70;;;;;;5070778;28;20430;-81
2022/05/07 07:06:57;;;;;;;25.57;23.77;;;13.30;56.00;;;;;;5070832;28;20468;-82
2022/05/07 07:09:23;;;;;;;23.70;22.03;;;13.40;54.40;;;;;;5070637;28;20179;-81
2022/05/07 07:11:48;;;;;;;23.47;21.97;;;13.50;53.50;;;;;;5070597;28;20429;-81
2022/05/07 07:14:14;;;;;;;23.80;22.20;;;13.50;53.60;;;;;;5073629;28;20175;-81
2022/05/07 07:16:39;;;;;;;27.20;25.03;;;13.50;51.30;;;;;;5074013;28;20191;-82
2022/05/07 07:19:05;;;;;;;26.03;24.37;;;13.60;51.50;;;;;;5073820;28;20179;-83
2022/05/07 07:21:31;;;;;;;25.77;24.00;;;13.70;52.10;;;;;;5073970;28;20179;-82
2022/05/07 07:23:59;;;;;;;23.07;21.80;;;13.70;52.90;;;;;;5073243;28;20395;-83
2022/05/07 07:26:24;;;;;;;23.07;21.57;;;13.80;49.90;;;;;;5073949;28;20268;-82
2022/05/07 07:28:50;;;;;;;23.40;22.10;;;13.80;48.90;;;;;;5073648;28;20416;-82
2022/05/07 07:31:16;;;;;;;23.47;22.27;;;13.90;48.40;;;;;;5074192;28;20186;-82
2022/05/07 07:33:42;;;;;;;23.57;22.33;;;13.90;46.80;;;;;;5073946;28;20263;-82
2022/05/07 07:36:09;;;;;;;24.43;22.83;;;14.00;45.90;;;;;;5073459;28;20425;-82
2022/05/07 07:38:36;;;;;;;23.20;21.70;;;14.00;45.80;;;;;;5073945;28;20421;-82
2022/05/07 07:41:03;;;;;;;23.97;22.60;;;14.00;46.30;;;;;;5074114;28;20429;-82
2022/05/07 07:43:29;;;;;;;24.50;23.23;;;14.10;46.10;;;;;;5073678;28;20508;-85
2022/05/07 07:48:40;;;;;;;24.00;22.47;;;14.40;46.80;;;;;;5074853;28;20532;-86
2022/05/07 07:51:07;;;;;;;24.13;22.73;;;14.40;46.90;;;;;;5073270;28;20504;-86
2022/05/07 07:53:33;;;;;;;24.20;22.87;;;14.50;46.10;;;;;;5073047;28;20176;-86
2022/05/07 07:55:59;;;;;;;24.47;23.07;;;14.60;45.70;;;;;;5073238;28;20413;-85
2022/05/07 07:58:25;;;;;;;23.90;22.60;;;14.80;48.30;;;;;;5073052;28;20421;-85
2022/05/07 08:00:51;;;;;;;26.00;24.30;;;14.80;46.40;;;;;;5069747;28;20535;-82
2022/05/07 08:03:18;;;;;;;27.57;25.77;;;14.90;43.90;;;;;;5063748;28;20480;-81
2022/05/07 08:05:47;;;;;;;28.10;26.60;;;14.90;44.30;;;;;;5064151;28;20634;-82
2022/05/07 08:13:44;;;;;;;28.87;27.27;;;15.10;46.10;;;;;;5073269;28;20440;-82
2022/05/07 08:16:11;;;;;;;24.73;23.43;;;15.30;45.10;;;;;;5072417;28;20906;-82
2022/05/07 08:18:38;;;;;;;25.27;23.70;;;15.30;43.70;;;;;;5071889;28;20467;-83
2022/05/07 08:21:05;;;;;;;25.02;23.73;;;15.40;44.20;;;;;;5071148;28;20418;-82
2022/05/07 08:23:31;;;;;;;27.37;25.60;;;15.40;44.40;;;;;;5071565;28;20187;-81
2022/05/07 08:25:57;;;;;;;27.03;25.00;;;15.60;42.00;;;;;;5071022;28;20457;-81
2022/05/07 08:28:24;;;;;;;27.07;25.57;;;15.60;43.10;;;;;;5071993;28;20217;-81
2022/05/07 08:30:50;;;;;;;26.43;24.67;;;15.70;43.50;;;;;;5072547;28;20237;-81
2022/05/07 08:33:17;;;;;;;25.13;23.73;;;15.70;42.20;;;;;;5072277;28;20414;-81
2022/05/07 08:35:43;;;;;;;27.00;25.50;;;15.80;42.90;;;;;;5072371;28;20509;-83
2022/05/07 08:38:09;;;;;;;27.10;25.30;;;15.90;41.20;;;;;;5072521;28;20466;-81
2022/05/07 08:40:34;;;;;;;27.00;25.40;;;15.90;42.50;;;;;;5072648;28;20437;-84
2022/05/07 08:43:02;;;;;;;26.20;24.73;;;16.00;43.30;;;;;;5066272;28;20167;-86
2022/05/07 08:45:28;;;;;;;26.20;24.60;;;16.10;41.90;;;;;;5072550;28;20171;-84
2022/05/07 08:47:53;;;;;;;26.30;24.70;;;16.10;41.20;;;;;;5072004;28;20414;-87
2022/05/07 08:50:20;;;;;;;27.60;25.97;;;16.20;41.40;;;;;;5071788;28;20202;-85
2022/05/07 08:52:46;;;;;;;26.87;25.37;;;16.30;41.30;;;;;;5071814;28;20182;-84
2022/05/07 08:55:14;;;;;;;27.57;25.50;;;16.30;40.50;;;;;;5071982;28;20742;-84
2022/05/07 08:57:41;;;;;;;30.03;27.93;;;16.30;41.50;;;;;;5071085;28;21303;-86
2022/05/07 09:00:08;;;;;;;28.07;26.50;;;16.50;40.60;;;;;;5071568;28;20418;-85
2022/05/07 09:02:39;;;;;;;25.90;24.50;;;16.50;39.10;;;;;;5071608;28;20452;-85
2022/05/07 09:05:05;;;;;;;27.43;25.83;;;16.60;40.20;;;;;;5071041;28;20922;-85
2022/05/07 09:07:31;;;;;;;27.83;26.23;;;16.70;40.00;;;;;;5071051;28;20461;-85
2022/05/07 09:09:57;;;;;;;28.00;25.90;;;16.90;42.80;;;;;;5071084;28;20820;-85
2022/05/07 09:12:28;;;;;;;26.77;24.77;;;17.00;37.70;;;;;;5070582;28;20171;-85
2022/05/07 09:15:00;;;;;;;27.53;25.93;;;17.10;37.80;;;;;;5069971;28;20164;-86
2022/05/07 09:17:25;;;;;;;27.97;26.37;;;17.20;37.80;;;;;;5052519;28;20437;-85
2022/05/07 09:19:51;;;;;;;28.53;26.87;;;17.20;37.80;;;;;;5070785;28;20426;-85
2022/05/07 09:22:17;;;;;;;27.67;26.07;;;17.20;37.90;;;;;;5071267;28;20207;-86
2022/05/07 09:24:53;;;;;;;27.23;25.67;;;17.20;35.60;;;;;;5070628;28;20470;-85
2022/05/07 09:27:19;;;;;;;27.30;25.77;;;17.20;34.20;;;;;;5071008;28;20211;-85
2022/05/07 09:30:04;;;;;;;26.33;24.73;;;17.20;34.90;;;;;;5071068;28;20421;-85
2022/05/07 09:32:36;;;;;;;24.13;22.93;;;17.30;33.60;;;;;;5071532;28;20171;-85
2022/05/07 09:38:01;;;;;;;23.77;22.67;;;17.70;32.40;;;;;;5073876;28;20767;-89
2022/05/07 09:40:28;;;;;;;23.37;22.37;;;17.60;31.30;;;;;;5070390;28;20417;-87
2022/05/07 09:42:57;;;;;;;22.87;21.87;;;17.50;28.80;;;;;;5070196;28;20413;-88
2022/05/07 09:45:27;;;;;;;22.50;21.50;;;17.70;29.20;;;;;;5070235;28;20928;-88
2022/05/07 09:47:59;;;;;;;25.70;24.20;;;17.80;30.90;;;;;;5070207;28;20421;-88
2022/05/07 09:58:37;;;;;;;21.53;20.53;;;18.30;30.40;;;;;;5072121;28;20780;-88
2022/05/07 10:01:20;;;;;;;21.50;20.40;;;18.40;29.80;;;;;;5070767;28;20418;-88
2022/05/07 10:04:14;;;;;;;21.20;20.30;;;18.50;30.00;;;;;;5070128;28;20917;-89
2022/05/07 10:07:07;;;;;;;20.10;19.20;;;18.50;29.30;;;;;;5070409;28;20449;-89
2022/05/07 10:09:51;;;;;;;19.57;18.60;;;18.60;27.50;;;;;;5070141;28;20504;-87
2022/05/07 10:12:20;;;;;;;19.57;18.67;;;18.50;27.10;;;;;;5071855;28;20497;-88
2022/05/07 10:14:45;;;;;;;19.30;18.40;;;18.50;28.30;;;;;;5070149;28;20413;-89
2022/05/07 10:17:13;;;;;;;19.53;18.73;;;18.50;27.30;;;;;;5070515;28;20417;-88
2022/05/07 10:19:41;;;;;;;18.80;18.10;;;18.50;27.60;;;;;;5070118;28;20211;-88
2022/05/07 10:22:24;;;;;;;19.10;18.30;;;18.50;24.40;;;;;;5070552;28;20837;-87
2022/05/07 10:25:04;;;;;;;18.50;17.90;;;18.50;25.90;;;;;;5070285;28;20433;-88
2022/05/07 10:27:34;;;;;;;16.50;15.90;;;18.50;21.20;;;;;;5069762;28;20472;-88
2022/05/07 10:30:16;;;;;;;16.80;16.20;;;18.60;20.40;;;;;;5070720;28;20813;-89
2022/05/07 10:33:02;;;;;;;18.13;17.30;;;18.60;20.70;;;;;;5070018;28;20414;-89
2022/05/07 10:35:40;;;;;;;18.23;17.53;;;18.90;23.50;;;;;;5069961;28;20496;-88
2022/05/07 10:38:37;;;;;;;18.07;17.17;;;19.10;22.50;;;;;;5070103;28;20413;-89
2022/05/07 10:41:09;;;;;;;18.00;17.20;;;19.10;24.60;;;;;;5066414;28;20414;-89
2022/05/07 10:43:39;;;;;;;18.60;17.80;;;19.10;25.30;;;;;;5069920;28;20414;-89
2022/05/07 10:46:23;;;;;;;18.80;17.90;;;19.10;23.10;;;;;;5070101;28;20457;-89
2022/05/07 10:49:04;;;;;;;19.60;18.37;;;19.10;23.20;;;;;;5072604;28;20765;-88
2022/05/07 10:51:35;;;;;;;20.03;19.13;;;19.20;23.10;;;;;;5074062;28;20413;-88
2022/05/07 10:54:39;;;;;;;18.67;17.97;;;19.20;25.30;;;;;;5074083;28;20478;-89
2022/05/07 10:57:05;;;;;;;19.93;18.93;;;19.20;24.40;;;;;;5075536;28;20462;-89
2022/05/07 10:59:33;;;;;;;20.10;19.23;;;19.30;24.70;;;;;;5074974;28;20937;-85
2022/05/07 11:02:11;;;;;;;19.37;18.47;;;19.30;23.70;;;;;;5075852;28;20179;-89
2022/05/07 11:04:43;;;;;;;17.80;17.10;;;19.10;26.10;;;;;;5074591;28;20420;-89
2022/05/07 11:07:18;;;;;;;18.57;17.50;;;19.10;25.20;;;;;;5075396;28;20461;-85
2022/05/07 11:09:48;;;;;;;19.20;18.17;;;19.20;25.10;;;;;;5074229;28;20404;-84
2022/05/07 11:12:17;;;;;;;19.40;18.50;;;19.20;24.60;;;;;;5073545;28;20925;-85
2022/05/07 11:14:43;;;;;;;19.40;18.50;;;19.10;27.60;;;;;;5073426;28;20496;-85
2022/05/07 11:17:10;;;;;;;18.90;17.90;;;19.10;27.20;;;;;;5073617;28;20427;-84
2022/05/07 11:19:37;;;;;;;18.43;17.70;;;19.10;25.70;;;;;;5072745;28;20421;-84
2022/05/07 11:22:10;;;;;;;18.10;17.30;;;19.20;25.70;;;;;;5073015;28;20413;-84
2022/05/07 11:24:37;;;;;;;18.47;17.67;;;19.20;24.30;;;;;;5070638;28;20426;-84
2022/05/07 11:27:34;;;;;;;19.30;17.50;;;19.30;23.60;;;;;;5073703;28;20507;-85
2022/05/07 11:30:05;;;;;;;17.83;17.13;;;19.40;23.60;;;;;;5074587;28;20439;-84
2022/05/07 11:32:38;;;;;;;18.57;17.77;;;19.40;22.50;;;;;;5073467;28;20751;-84
2022/05/07 11:35:05;;;;;;;18.20;17.50;;;19.20;22.90;;;;;;5072777;28;20452;-83
2022/05/07 11:37:41;;;;;;;18.20;17.10;;;19.10;23.70;;;;;;5073042;28;20437;-83
2022/05/07 11:40:08;;;;;;;17.43;16.63;;;19.20;22.60;;;;;;5072534;28;20758;-83
2022/05/07 11:42:46;;;;;;;17.50;16.53;;;19.30;22.80;;;;;;5071755;28;20771;-83
2022/05/07 11:45:26;;;;;;;16.07;15.40;;;19.30;22.20;;;;;;5071676;28;20438;-84
2022/05/07 11:47:53;;;;;;;17.73;16.77;;;19.40;19.90;;;;;;5072398;28;20487;-82
2022/05/07 11:50:27;;;;;;;17.00;16.30;;;19.50;21.10;;;;;;5072976;28;20467;-83
2022/05/07 11:52:53;;;;;;;17.57;16.77;;;19.70;21.50;;;;;;5072948;28;20769;-83
2022/05/07 11:55:29;;;;;;;18.40;17.60;;;19.80;22.20;;;;;;5072162;28;20470;-83
2022/05/07 11:57:58;;;;;;;17.80;17.10;;;20.00;21.70;;;;;;5072759;28;20444;-83
2022/05/07 12:00:30;;;;;;;18.77;17.97;;;20.10;21.80;;;;;;5072594;28;20505;-83
2022/05/07 12:03:03;;;;;;;17.40;16.70;;;20.10;21.20;;;;;;5072719;28;20409;-83
2022/05/07 12:05:46;;;;;;;17.60;16.80;;;20.10;22.40;;;;;;5072773;28;20445;-83
2022/05/07 12:08:16;;;;;;;18.13;17.33;;;20.10;21.80;;;;;;5072964;28;20433;-82
2022/05/07 12:10:43;;;;;;;18.63;17.90;;;20.00;21.70;;;;;;5072504;28;20448;-82
2022/05/07 12:13:10;;;;;;;18.90;18.00;;;20.00;21.70;;;;;;5072735;28;20465;-82
2022/05/07 12:18:22;;;;;;;18.83;17.93;;;19.80;22.60;;;;;;5073998;28;20405;-83
2022/05/07 12:20:48;;;;;;;17.93;17.23;;;19.60;22.70;;;;;;5072728;28;20894;-83
2022/05/07 12:31:27;;;;;;;19.10;18.30;;;19.50;22.90;;;;;;5074141;28;20409;-82
2022/05/07 12:33:53;;;;;;;17.40;16.80;;;19.50;21.60;;;;;;5071052;28;20418;-82
2022/05/07 12:36:19;;;;;;;17.50;16.90;;;19.60;22.80;;;;;;5072668;28;20413;-83
2022/05/07 12:38:44;;;;;;;18.00;17.37;;;19.60;22.80;;;;;;5072815;28;20225;-83
2022/05/07 12:41:10;;;;;;;18.03;17.23;;;19.60;22.30;;;;;;5072755;28;20179;-82
2022/05/07 12:43:36;;;;;;;19.53;18.40;;;19.50;23.00;;;;;;5072688;28;20228;-84
2022/05/07 12:46:02;;;;;;;18.40;17.60;;;19.50;23.30;;;;;;5072283;28;20199;-82
2022/05/07 12:48:27;;;;;;;18.20;17.50;;;19.60;22.60;;;;;;5072133;28;20662;-82
2022/05/07 12:50:53;;;;;;;18.00;17.30;;;19.70;24.60;;;;;;5072107;28;20441;-84
2022/05/07 12:53:19;;;;;;;18.67;17.77;;;19.80;21.80;;;;;;5072144;28;20693;-84
2022/05/07 12:55:45;;;;;;;17.50;16.70;;;19.80;21.80;;;;;;5070805;28;20706;-84
2022/05/07 12:58:11;;;;;;;17.93;17.13;;;19.90;23.40;;;;;;5071168;28;20290;-83
2022/05/07 13:00:40;;;;;;;17.50;16.80;;;19.90;20.60;;;;;;5070799;28;20402;-83
2022/05/07 13:03:07;;;;;;;17.50;16.80;;;20.00;21.00;;;;;;5071359;28;20628;-82
2022/05/07 13:05:34;;;;;;;18.23;17.53;;;20.10;20.60;;;;;;5071839;28;20559;-83
2022/05/07 13:08:00;;;;;;;17.73;16.83;;;20.20;21.90;;;;;;5071655;28;20425;-87
2022/05/07 13:10:29;;;;;;;17.80;16.90;;;20.20;20.40;;;;;;5070444;28;20901;-89
2022/05/07 13:13:13;;;;;;;17.90;16.67;;;20.20;20.10;;;;;;5069787;28;20839;-83